createdAt,value
2018-12-20T00:00:39.920Z,38.93
2018-12-20T00:03:10.575Z,38.20
2018-12-20T00:05:40.602Z,39.13
2018-12-20T00:08:11.634Z,38.27
2018-12-20T00:10:41.764Z,37.27
2018-12-20T00:13:11.794Z,38.77
2018-12-20T00:15:41.695Z,36.93
2018-12-20T00:18:11.725Z,38.73
2018-12-20T00:20:41.918Z,36.67
2018-12-20T00:23:12.114Z,35.77
2018-12-20T00:25:42.416Z,35.10
2018-12-20T00:28:12.611Z,33.83
2018-12-20T00:30:42.807Z,34.20
2018-12-20T00:33:13.116Z,34.63
2018-12-20T00:35:43.172Z,32.63
2018-12-20T00:38:13.200Z,33.17
2018-12-20T00:40:43.519Z,33.20
2018-12-20T00:43:13.548Z,32.77
2018-12-20T00:45:44.250Z,30.00
2018-12-20T00:48:14.657Z,28.93
2018-12-20T00:50:44.567Z,33.00
2018-12-20T00:53:14.579Z,30.43
2018-12-20T00:55:45.343Z,30.47
2018-12-20T00:58:15.250Z,56.60
2018-12-20T01:00:45.337Z,36.60
2018-12-20T01:03:15.760Z,32.43
2018-12-20T01:05:45.790Z,33.90
2018-12-20T01:08:15.931Z,35.43
2018-12-20T01:10:47.611Z,35.90
2018-12-20T01:13:17.988Z,36.40
2018-12-20T01:15:48.047Z,38.67
2018-12-20T01:18:18.221Z,37.87
2018-12-20T01:20:48.706Z,35.97
2018-12-20T01:23:18.886Z,35.77
2018-12-20T01:25:49.173Z,37.47
2018-12-20T01:28:19.293Z,37.90
2018-12-20T01:30:49.624Z,36.30
2018-12-20T01:33:19.898Z,34.67
2018-12-20T01:35:50.128Z,38.87
2018-12-20T01:38:20.032Z,36.20
2018-12-20T01:40:50.128Z,38.60
2018-12-20T01:43:20.426Z,37.60
2018-12-20T01:45:50.636Z,37.20
2018-12-20T01:48:21.754Z,35.77
2018-12-20T01:50:51.753Z,38.10
2018-12-20T01:53:21.927Z,34.00
2018-12-20T01:55:52.600Z,32.13
2018-12-20T01:58:22.723Z,29.17
2018-12-20T02:00:53.320Z,33.03
2018-12-20T02:03:25.259Z,33.60
2018-12-20T02:05:55.259Z,33.50
2018-12-20T02:08:25.625Z,29.90
2018-12-20T02:10:56.551Z,30.97
2018-12-20T02:13:26.863Z,30.43
2018-12-20T02:15:57.313Z,27.60
2018-12-20T02:18:27.474Z,29.93
2018-12-20T02:20:57.607Z,28.90
2018-12-20T02:23:28.188Z,27.30
2018-12-20T02:25:57.760Z,30.37
2018-12-20T02:28:27.707Z,31.70
2018-12-20T02:30:57.782Z,28.47
2018-12-20T02:33:27.986Z,26.47
2018-12-20T02:35:57.762Z,25.73
2018-12-20T02:38:27.249Z,29.37
2018-12-20T02:40:56.961Z,28.20
2018-12-20T02:43:27.534Z,26.17
2018-12-20T02:45:57.462Z,26.97
2018-12-20T02:48:27.774Z,27.73
2018-12-20T02:50:57.866Z,25.10
2018-12-20T02:53:28.237Z,25.47
2018-12-20T02:55:58.347Z,24.17
2018-12-20T02:58:28.883Z,24.13
2018-12-20T03:00:59.326Z,22.33
2018-12-20T03:03:30.004Z,21.97
2018-12-20T03:06:00.519Z,20.73
2018-12-20T03:08:30.773Z,19.57
2018-12-20T03:11:00.742Z,22.40
2018-12-20T03:13:31.067Z,22.43
2018-12-20T03:16:01.674Z,21.13
2018-12-20T03:18:31.656Z,20.70
2018-12-20T03:21:01.814Z,21.07
2018-12-20T03:23:32.305Z,21.37
2018-12-20T03:26:02.996Z,20.57
2018-12-20T03:28:33.376Z,21.97
2018-12-20T03:31:03.413Z,19.67
2018-12-20T03:33:33.525Z,21.83
2018-12-20T03:36:04.000Z,22.63
2018-12-20T03:38:34.150Z,22.03
2018-12-20T03:41:06.151Z,22.03
2018-12-20T03:43:36.310Z,24.10
2018-12-20T03:46:06.374Z,22.57
2018-12-20T03:48:36.494Z,24.90
2018-12-20T03:51:07.961Z,25.13
2018-12-20T03:53:38.134Z,25.43
2018-12-20T03:56:08.588Z,25.43
2018-12-20T03:58:38.942Z,24.40
2018-12-20T04:01:09.219Z,24.47
2018-12-20T04:03:39.092Z,24.70
2018-12-20T04:06:09.184Z,26.07
2018-12-20T04:08:39.157Z,23.57
2018-12-20T04:11:09.505Z,24.93
2018-12-20T04:13:39.668Z,27.80
2018-12-20T04:16:09.765Z,28.60
2018-12-20T04:18:39.775Z,28.80
2018-12-20T04:21:10.013Z,31.00
2018-12-20T04:23:40.431Z,26.23
2018-12-20T04:26:10.490Z,27.10
2018-12-20T04:28:40.757Z,28.67
2018-12-20T04:31:13.103Z,29.90
2018-12-20T04:33:43.269Z,31.93
2018-12-20T04:36:13.260Z,30.17
2018-12-20T04:38:43.530Z,29.70
2018-12-20T04:41:13.604Z,29.23
2018-12-20T04:43:43.619Z,30.57
2018-12-20T04:46:14.084Z,29.07
2018-12-20T04:48:44.273Z,30.80
2018-12-20T04:51:14.362Z,30.30
2018-12-20T04:53:44.424Z,29.33
2018-12-20T04:56:14.713Z,27.27
2018-12-20T04:58:45.253Z,27.17
2018-12-20T05:01:15.504Z,21.23
2018-12-20T05:03:45.840Z,20.50
2018-12-20T05:06:16.113Z,21.60
2018-12-20T05:08:46.149Z,23.43
2018-12-20T05:11:16.394Z,21.20
2018-12-20T05:13:46.624Z,21.17
2018-12-20T05:16:16.667Z,20.67
2018-12-20T05:18:46.924Z,19.70
2018-12-20T05:21:19.165Z,20.50
2018-12-20T05:23:49.294Z,22.30
2018-12-20T05:26:19.994Z,21.43
2018-12-20T05:28:50.213Z,22.60
2018-12-20T05:31:20.136Z,20.60
2018-12-20T05:33:50.319Z,18.00
2018-12-20T05:36:20.291Z,22.20
2018-12-20T05:38:50.378Z,20.83
2018-12-20T05:41:20.442Z,20.93
2018-12-20T05:43:50.721Z,21.47
2018-12-20T05:46:21.046Z,22.33
2018-12-20T05:48:51.279Z,20.30
2018-12-20T05:51:21.767Z,21.90
2018-12-20T05:53:53.034Z,19.10
2018-12-20T05:56:23.083Z,20.13
2018-12-20T05:58:53.266Z,20.37
2018-12-20T06:01:23.333Z,19.77
2018-12-20T06:03:53.137Z,20.20
2018-12-20T06:06:23.683Z,20.37
2018-12-20T06:08:54.010Z,22.17
2018-12-20T06:11:24.465Z,20.10
2018-12-20T06:13:55.816Z,20.57
2018-12-20T06:16:25.960Z,21.60
2018-12-20T06:18:55.979Z,22.63
2018-12-20T06:21:26.057Z,22.37
2018-12-20T06:23:56.319Z,23.87
2018-12-20T06:26:26.276Z,22.57
2018-12-20T06:28:56.447Z,22.50
2018-12-20T06:31:26.440Z,20.60
2018-12-20T06:33:56.296Z,20.23
2018-12-20T06:36:26.314Z,20.60
2018-12-20T06:38:56.666Z,19.20
2018-12-20T06:41:26.735Z,20.00
2018-12-20T06:43:56.684Z,18.87
2018-12-20T06:46:27.171Z,22.17
2018-12-20T06:48:57.413Z,19.40
2018-12-20T06:51:27.807Z,19.80
2018-12-20T06:53:58.067Z,20.90
2018-12-20T06:56:28.191Z,19.70
2018-12-20T06:58:58.206Z,20.00
2018-12-20T07:01:28.123Z,19.40
2018-12-20T07:03:58.042Z,18.70
2018-12-20T07:06:27.916Z,20.20
2018-12-20T07:08:58.002Z,27.80
2018-12-20T07:11:28.117Z,21.17
2018-12-20T07:13:58.058Z,20.80
2018-12-20T07:16:29.445Z,19.87
2018-12-20T07:18:59.759Z,30.27
2018-12-20T07:21:29.851Z,18.27
2018-12-20T07:23:59.855Z,28.80
2018-12-20T07:26:30.451Z,38.70
2018-12-20T07:29:00.457Z,22.53
2018-12-20T07:31:32.847Z,21.40
2018-12-20T07:34:02.995Z,21.27
2018-12-20T07:36:33.033Z,41.27
2018-12-20T07:39:04.230Z,39.03
2018-12-20T07:41:34.388Z,23.63
2018-12-20T07:44:04.941Z,23.87
2018-12-20T07:46:38.006Z,23.40
2018-12-20T07:49:07.066Z,21.17
2018-12-20T07:51:37.216Z,28.37
2018-12-20T07:54:07.134Z,21.77
2018-12-20T07:57:08.498Z,19.77
2018-12-20T07:59:38.519Z,20.27
2018-12-20T08:02:09.273Z,25.00
2018-12-20T08:04:39.225Z,27.00
2018-12-20T08:07:09.284Z,22.90
2018-12-20T08:09:39.274Z,23.97
2018-12-20T08:12:09.245Z,22.77
2018-12-20T08:14:39.223Z,20.07
2018-12-20T08:17:09.731Z,21.40
2018-12-20T08:19:40.283Z,23.07
2018-12-20T08:22:10.480Z,21.30
2018-12-20T08:24:40.438Z,21.80
2018-12-20T08:27:10.372Z,24.27
2018-12-20T08:29:40.359Z,26.03
2018-12-20T08:32:10.507Z,24.80
2018-12-20T08:34:40.693Z,29.60
2018-12-20T08:37:10.785Z,19.60
2018-12-20T08:39:40.992Z,23.87
2018-12-20T08:42:11.064Z,30.97
2018-12-20T08:44:41.147Z,27.33
2018-12-20T08:47:11.089Z,46.53
2018-12-20T08:49:41.432Z,34.60
2018-12-20T08:52:11.543Z,41.67
2018-12-20T08:54:41.514Z,41.53
2018-12-20T08:57:11.615Z,31.03
2018-12-20T08:59:41.340Z,50.40
2018-12-20T09:02:11.923Z,17.00
2018-12-20T09:04:42.046Z,28.83
2018-12-20T09:07:12.313Z,31.97
2018-12-20T09:09:42.282Z,19.70
2018-12-20T09:12:12.462Z,19.97
2018-12-20T09:14:42.578Z,20.40
2018-12-20T09:17:12.597Z,20.43
2018-12-20T09:19:42.610Z,14.77
2018-12-20T09:22:12.953Z,14.10
2018-12-20T09:24:43.632Z,14.60
2018-12-20T09:27:13.987Z,16.73
2018-12-20T09:29:44.158Z,20.70
2018-12-20T09:32:15.169Z,18.47
2018-12-20T09:34:45.317Z,26.33
2018-12-20T09:37:16.534Z,15.80
2018-12-20T09:39:46.697Z,19.70
2018-12-20T09:42:17.434Z,14.33
2018-12-20T09:44:46.933Z,21.50
2018-12-20T09:47:21.974Z,12.83
2018-12-20T09:49:51.924Z,10.63
2018-12-20T09:52:21.329Z,21.90
2018-12-20T09:54:50.656Z,13.10
2018-12-20T09:57:19.952Z,20.67
2018-12-20T09:59:50.241Z,19.37
2018-12-20T10:02:20.503Z,11.53
2018-12-20T10:04:50.631Z,10.60
2018-12-20T10:07:20.709Z,18.73
2018-12-20T10:09:50.872Z,13.07
2018-12-20T10:12:21.041Z,15.20
2018-12-20T10:14:51.230Z,16.23
2018-12-20T10:17:21.186Z,25.23
2018-12-20T10:19:51.379Z,10.90
2018-12-20T10:22:22.129Z,12.80
2018-12-20T10:24:52.357Z,11.67
2018-12-20T10:27:21.723Z,13.00
2018-12-20T10:29:51.172Z,18.90
2018-12-20T10:32:22.201Z,14.20
2018-12-20T10:34:52.371Z,10.30
2018-12-20T10:37:22.417Z,14.13
2018-12-20T10:39:52.443Z,11.13
2018-12-20T10:42:22.469Z,13.83
2018-12-20T10:44:52.584Z,20.10
2018-12-20T10:47:29.267Z,14.50
2018-12-20T10:49:58.267Z,12.93
2018-12-20T10:52:28.492Z,13.77
2018-12-20T10:54:58.379Z,12.80
2018-12-20T10:57:28.689Z,22.03
2018-12-20T10:59:58.494Z,16.27
2018-12-20T11:02:33.744Z,17.47
2018-12-20T11:05:08.358Z,18.67
2018-12-20T11:07:43.765Z,12.40
2018-12-20T11:10:18.481Z,11.90
2018-12-20T11:12:47.968Z,17.50
2018-12-20T11:15:17.589Z,43.17
2018-12-20T11:17:47.121Z,19.80
2018-12-20T11:20:17.188Z,14.40
2018-12-20T11:22:46.843Z,12.57
2018-12-20T11:25:17.337Z,18.70
2018-12-20T11:27:46.647Z,11.20
2018-12-20T11:30:15.978Z,14.73
2018-12-20T11:32:45.323Z,14.70
2018-12-20T11:35:14.808Z,15.00
2018-12-20T11:37:44.147Z,10.93
2018-12-20T11:40:13.449Z,12.60
2018-12-20T11:42:42.738Z,10.90
2018-12-20T11:45:12.218Z,10.60
2018-12-20T11:47:46.072Z,10.17
2018-12-20T11:50:14.147Z,10.00
2018-12-20T11:52:44.858Z,8.60
2018-12-20T11:55:14.227Z,9.23
2018-12-20T11:57:43.924Z,10.03
2018-12-20T12:00:13.606Z,9.17
2018-12-20T12:02:42.867Z,10.70
2018-12-20T12:05:12.184Z,10.40
2018-12-20T12:07:41.553Z,11.13
2018-12-20T12:10:11.069Z,11.47
2018-12-20T12:12:41.028Z,11.50
2018-12-20T12:15:11.515Z,11.50
2018-12-20T12:17:40.995Z,11.60
2018-12-20T12:20:10.370Z,14.80
2018-12-20T12:22:39.835Z,13.00
2018-12-20T12:25:09.330Z,13.63
2018-12-20T12:27:38.803Z,13.53
2018-12-20T12:30:09.308Z,13.70
2018-12-20T12:32:38.641Z,13.17
2018-12-20T12:35:08.039Z,11.73
2018-12-20T12:37:37.543Z,10.20
2018-12-20T12:40:07.296Z,11.57
2018-12-20T12:42:37.184Z,10.13
2018-12-20T12:45:06.896Z,10.10
2018-12-20T12:47:41.452Z,10.43
2018-12-20T12:50:10.811Z,9.27
2018-12-20T12:52:40.411Z,10.27
2018-12-20T12:55:09.794Z,7.40
2018-12-20T12:57:39.510Z,7.30
2018-12-20T13:00:09.381Z,7.20
2018-12-20T13:02:38.956Z,6.93
2018-12-20T13:05:08.474Z,6.23
2018-12-20T13:07:38.950Z,4.97
2018-12-20T13:10:08.713Z,4.03
2018-12-20T13:12:38.614Z,3.80
2018-12-20T13:15:08.970Z,3.60
2018-12-20T13:17:38.494Z,7.43
2018-12-20T13:20:08.726Z,6.20
2018-12-20T13:22:38.087Z,7.27
2018-12-20T13:25:08.259Z,9.83
2018-12-20T13:27:37.605Z,11.47
2018-12-20T13:30:09.339Z,14.73
2018-12-20T13:32:40.080Z,13.83
2018-12-20T13:35:09.564Z,13.80
2018-12-20T13:37:39.262Z,12.13
2018-12-20T13:40:08.765Z,10.50
2018-12-20T13:42:38.389Z,12.00
2018-12-20T13:45:07.979Z,13.20
2018-12-20T13:47:37.602Z,11.80
2018-12-20T13:50:08.282Z,10.37
2018-12-20T13:52:37.749Z,11.50
2018-12-20T13:55:07.448Z,9.53
2018-12-20T13:57:36.731Z,9.43
2018-12-20T14:00:07.010Z,12.30
2018-12-20T14:02:36.567Z,10.73
2018-12-20T14:05:05.958Z,8.13
2018-12-20T14:07:35.759Z,9.50
2018-12-20T14:10:05.249Z,9.20
2018-12-20T14:12:34.816Z,8.33
2018-12-20T14:15:04.533Z,8.37
2018-12-20T14:17:34.107Z,8.20
2018-12-20T14:20:03.745Z,9.10
2018-12-20T14:22:33.611Z,8.67
2018-12-20T14:25:03.939Z,8.30
2018-12-20T14:27:34.376Z,8.80
2018-12-20T14:30:03.875Z,8.53
2018-12-20T14:32:33.273Z,8.63
2018-12-20T14:35:04.179Z,10.20
2018-12-20T14:37:33.885Z,9.70
2018-12-20T14:40:03.864Z,9.43
2018-12-20T14:42:33.265Z,8.90
2018-12-20T14:45:02.828Z,9.00
2018-12-20T14:47:32.047Z,9.70
2018-12-20T14:50:01.483Z,9.70
2018-12-20T14:52:30.932Z,9.50
2018-12-20T14:55:00.540Z,10.70
2018-12-20T14:57:30.185Z,10.57
2018-12-20T14:59:59.447Z,9.97
2018-12-20T15:02:28.883Z,9.90
2018-12-20T15:04:58.437Z,11.43
2018-12-20T15:07:27.860Z,11.27
2018-12-20T15:09:57.667Z,10.00
2018-12-20T15:12:26.927Z,8.57
2018-12-20T15:14:56.432Z,7.67
2018-12-20T15:17:26.232Z,9.30
2018-12-20T15:19:55.755Z,8.53
2018-12-20T15:22:25.363Z,8.67
2018-12-20T15:24:55.063Z,18.97
2018-12-20T15:27:24.693Z,13.57
2018-12-20T15:29:54.337Z,10.90
2018-12-20T15:32:24.634Z,9.33
2018-12-20T15:34:54.348Z,8.53
2018-12-20T15:37:23.810Z,22.50
2018-12-20T15:39:53.507Z,113.43
2018-12-20T15:42:23.380Z,48.57
2018-12-20T15:44:53.197Z,20.17
2018-12-20T15:47:22.725Z,17.00
2018-12-20T15:49:52.730Z,11.33
2018-12-20T15:52:22.073Z,11.40
2018-12-20T15:54:51.467Z,9.30
2018-12-20T15:57:20.944Z,11.90
2018-12-20T15:59:50.488Z,95.23
2018-12-20T16:02:19.984Z,84.53
2018-12-20T16:04:49.457Z,36.30
2018-12-20T16:07:18.911Z,18.10
2018-12-20T16:09:48.605Z,15.80
2018-12-20T16:12:18.121Z,13.20
2018-12-20T16:14:47.446Z,12.73
2018-12-20T16:17:17.228Z,9.27
2018-12-20T16:19:46.687Z,9.20
2018-12-20T16:22:16.084Z,11.40
2018-12-20T16:24:45.620Z,10.13
2018-12-20T16:27:15.167Z,9.60
2018-12-20T16:29:44.605Z,9.00
2018-12-20T16:32:14.253Z,10.43
2018-12-20T16:34:43.712Z,8.90
2018-12-20T16:37:13.208Z,10.57
2018-12-20T16:39:42.700Z,12.37
2018-12-20T16:42:12.597Z,8.93
2018-12-20T16:44:41.968Z,38.20
2018-12-20T16:47:11.373Z,24.80
2018-12-20T16:49:41.069Z,10.20
2018-12-20T16:52:10.812Z,8.70
2018-12-20T16:54:40.235Z,8.27
2018-12-20T16:57:09.985Z,9.93
2018-12-20T16:59:39.646Z,8.93
2018-12-20T17:02:09.248Z,7.40
2018-12-20T17:04:38.652Z,8.87
2018-12-20T17:07:09.072Z,7.00
2018-12-20T17:09:38.949Z,7.47
2018-12-20T17:12:08.648Z,9.90
2018-12-20T17:14:38.104Z,7.50
2018-12-20T17:17:07.851Z,6.70
2018-12-20T17:19:38.483Z,7.47
2018-12-20T17:22:08.008Z,7.07
2018-12-20T17:24:37.453Z,7.53
2018-12-20T17:27:06.965Z,6.10
2018-12-20T17:29:36.751Z,6.37
2018-12-20T17:32:06.546Z,6.30
2018-12-20T17:34:36.167Z,6.60
2018-12-20T17:37:05.810Z,7.83
2018-12-20T17:39:35.313Z,7.83
2018-12-20T17:42:05.847Z,7.90
2018-12-20T17:44:35.384Z,8.60
2018-12-20T17:47:05.043Z,7.80
2018-12-20T17:49:34.779Z,8.37
2018-12-20T17:52:04.634Z,7.50
2018-12-20T17:54:34.202Z,8.33
2018-12-20T17:57:03.880Z,8.37
2018-12-20T17:59:33.423Z,7.13
2018-12-20T18:02:03.753Z,9.40
2018-12-20T18:04:33.206Z,7.80
2018-12-20T18:07:03.449Z,6.33
2018-12-20T18:09:32.979Z,7.20
2018-12-20T18:12:02.737Z,7.20
2018-12-20T18:14:32.418Z,7.43
2018-12-20T18:17:02.031Z,7.77
2018-12-20T18:19:38.845Z,6.40
2018-12-20T18:22:03.961Z,6.87
2018-12-20T18:24:33.350Z,8.03
2018-12-20T18:27:04.107Z,8.57
2018-12-20T18:29:33.594Z,8.23
2018-12-20T18:32:03.269Z,10.07
2018-12-20T18:34:32.943Z,9.50
2018-12-20T18:37:03.301Z,17.83
2018-12-20T18:39:33.198Z,8.80
2018-12-20T18:42:02.810Z,9.27
2018-12-20T18:44:32.468Z,9.93
2018-12-20T18:47:02.635Z,28.43
2018-12-20T18:49:32.078Z,29.63
2018-12-20T18:52:01.886Z,9.30
2018-12-20T18:54:31.456Z,11.23
2018-12-20T18:57:00.901Z,7.60
2018-12-20T18:59:31.083Z,7.20
2018-12-20T19:02:00.841Z,7.40
2018-12-20T19:04:30.674Z,6.67
2018-12-20T19:07:00.169Z,7.23
2018-12-20T19:09:29.895Z,7.70
2018-12-20T19:11:59.522Z,8.60
2018-12-20T19:14:28.898Z,7.80
2018-12-20T19:16:58.484Z,8.30
2018-12-20T19:19:27.993Z,12.00
2018-12-20T19:21:57.857Z,9.10
2018-12-20T19:24:27.331Z,10.10
2018-12-20T19:26:56.999Z,8.03
2018-12-20T19:29:26.365Z,7.77
2018-12-20T19:31:55.867Z,7.60
2018-12-20T19:34:25.054Z,7.30
2018-12-20T19:36:54.675Z,8.77
2018-12-20T19:39:25.819Z,8.30
2018-12-20T19:41:57.753Z,8.63
2018-12-20T19:44:27.210Z,7.33
2018-12-20T19:46:56.762Z,7.57
2018-12-20T19:49:26.249Z,7.20
2018-12-20T19:51:55.820Z,7.90
2018-12-20T19:54:25.515Z,6.87
2018-12-20T19:56:55.076Z,7.53
2018-12-20T19:59:24.787Z,7.80
2018-12-20T20:02:04.314Z,7.67
2018-12-20T20:04:27.276Z,6.30
2018-12-20T20:06:56.982Z,8.13
2018-12-20T20:09:26.451Z,6.43
2018-12-20T20:11:57.123Z,7.57
2018-12-20T20:14:26.791Z,7.40
2018-12-20T20:16:56.533Z,9.23
2018-12-20T20:19:26.229Z,7.83
2018-12-20T20:21:55.845Z,6.83
2018-12-20T20:24:25.482Z,7.37
2018-12-20T20:26:54.881Z,7.50
2018-12-20T20:29:24.481Z,7.93
2018-12-20T20:31:54.066Z,8.90
2018-12-20T20:34:23.716Z,6.97
2018-12-20T20:36:53.120Z,8.40
2018-12-20T20:39:22.683Z,7.70
2018-12-20T20:41:52.118Z,7.43
2018-12-20T20:44:21.624Z,8.10
2018-12-20T20:46:51.141Z,7.70
2018-12-20T20:49:20.670Z,6.97
2018-12-20T20:51:50.716Z,9.23
2018-12-20T20:54:20.414Z,12.80
2018-12-20T20:56:49.987Z,13.43
2018-12-20T20:59:19.307Z,12.90
2018-12-20T21:01:49.608Z,13.47
2018-12-20T21:04:19.187Z,13.47
2018-12-20T21:06:48.644Z,12.67
2018-12-20T21:09:18.318Z,11.47
2018-12-20T21:11:47.878Z,12.10
2018-12-20T21:14:17.328Z,11.00
2018-12-20T21:16:47.095Z,10.40
2018-12-20T21:19:16.801Z,9.87
2018-12-20T21:21:46.289Z,9.53
2018-12-20T21:24:16.032Z,9.40
2018-12-20T21:26:46.749Z,8.20
2018-12-20T21:29:16.241Z,8.77
2018-12-20T21:31:46.254Z,7.27
2018-12-20T21:34:15.728Z,7.13
2018-12-20T21:36:45.046Z,7.83
2018-12-20T21:39:14.532Z,8.30
2018-12-20T21:41:44.144Z,8.33
2018-12-20T21:44:13.569Z,8.00
2018-12-20T21:46:43.265Z,7.70
2018-12-20T21:49:12.685Z,7.33
2018-12-20T21:51:42.052Z,7.00
2018-12-20T21:54:11.304Z,7.83
2018-12-20T21:56:40.856Z,8.30
2018-12-20T22:02:42.478Z,6.97
2018-12-20T22:05:11.845Z,6.20
2018-12-20T22:07:41.222Z,5.97
2018-12-20T22:10:10.756Z,6.17
2018-12-20T22:12:41.158Z,6.23
2018-12-20T22:15:10.556Z,5.60
2018-12-20T22:17:39.870Z,5.90
2018-12-20T22:20:09.310Z,4.77
2018-12-20T22:22:38.650Z,4.90
2018-12-20T22:25:08.620Z,5.60
2018-12-20T22:27:38.305Z,5.03
2018-12-20T22:30:09.456Z,6.07
2018-12-20T22:32:38.933Z,5.43
2018-12-20T22:35:08.075Z,4.60
2018-12-20T22:37:37.600Z,3.93
2018-12-20T22:40:07.383Z,3.60
2018-12-20T22:42:36.712Z,4.33
2018-12-20T22:45:06.927Z,5.00
2018-12-20T22:47:36.565Z,4.47
2018-12-20T22:50:07.324Z,4.37
2018-12-20T22:52:36.686Z,4.00
2018-12-20T22:55:06.627Z,4.70
2018-12-20T22:57:35.906Z,4.90
2018-12-20T23:00:06.517Z,4.70
2018-12-20T23:02:36.326Z,4.13
2018-12-20T23:05:05.907Z,4.67
2018-12-20T23:07:35.289Z,4.07
2018-12-20T23:10:04.959Z,4.10
2018-12-20T23:12:34.360Z,3.33
2018-12-20T23:15:04.860Z,3.40
2018-12-20T23:17:34.473Z,3.20
2018-12-20T23:20:04.586Z,3.50
2018-12-20T23:22:33.967Z,3.30
2018-12-20T23:25:04.764Z,4.00
2018-12-20T23:27:34.141Z,4.30
2018-12-20T23:30:04.702Z,3.50
2018-12-20T23:32:34.178Z,4.23
2018-12-20T23:35:03.620Z,3.77
2018-12-20T23:37:33.038Z,3.83
2018-12-20T23:40:03.346Z,2.97
2018-12-20T23:42:32.816Z,2.87
2018-12-20T23:45:02.726Z,3.50
2018-12-20T23:47:32.046Z,3.20
2018-12-20T23:50:01.534Z,3.27
2018-12-20T23:52:30.991Z,3.50
2018-12-20T23:55:00.317Z,3.47
2018-12-20T23:57:30.306Z,3.20
2018-12-20T23:59:59.943Z,3.03
